sensor_id;sensor_type;location;lat;lon;timestamp;P1;durP1;ratioP1;P2;durP2;ratioP2
61785;SDS011;47692;53.714;11.372;2022-10-16T01:07:00;11.50;;;8.10;;
61785;SDS011;47692;53.714;11.372;2022-10-16T01:14:38;9.75;;;7.07;;
61785;SDS011;47692;53.714;11.372;2022-10-16T01:22:44;11.18;;;6.57;;
61785;SDS011;47692;53.714;11.372;2022-10-16T01:25:25;9.35;;;6.45;;
61785;SDS011;47692;53.714;11.372;2022-10-16T01:28:14;10.27;;;6.30;;
61785;SDS011;47692;53.714;11.372;2022-10-16T01:30:43;8.60;;;6.45;;
61785;SDS011;47692;53.714;11.372;2022-10-16T01:35:54;11.20;;;6.43;;
61785;SDS011;47692;53.714;11.372;2022-10-16T03:19:11;5.70;;;3.00;;
61785;SDS011;47692;53.714;11.372;2022-10-16T03:21:36;5.25;;;3.40;;
61785;SDS011;47692;53.714;11.372;2022-10-16T03:24:02;5.32;;;3.30;;
61785;SDS011;47692;53.714;11.372;2022-10-16T03:26:27;5.93;;;3.35;;
61785;SDS011;47692;53.714;11.372;2022-10-16T03:28:52;4.93;;;3.07;;
61785;SDS011;47692;53.714;11.372;2022-10-16T03:31:18;6.70;;;3.40;;
61785;SDS011;47692;53.714;11.372;2022-10-16T03:33:43;7.40;;;3.33;;
61785;SDS011;47692;53.714;11.372;2022-10-16T03:36:08;6.03;;;3.15;;
61785;SDS011;47692;53.714;11.372;2022-10-16T03:38:34;7.03;;;3.40;;
61785;SDS011;47692;53.714;11.372;2022-10-16T03:40:59;6.10;;;3.00;;
61785;SDS011;47692;53.714;11.372;2022-10-16T03:43:25;4.60;;;2.90;;
61785;SDS011;47692;53.714;11.372;2022-10-16T03:45:50;4.80;;;2.87;;
61785;SDS011;47692;53.714;11.372;2022-10-16T03:48:16;4.93;;;2.80;;
61785;SDS011;47692;53.714;11.372;2022-10-16T03:50:42;3.63;;;2.70;;
61785;SDS011;47692;53.714;11.372;2022-10-16T03:53:07;4.57;;;2.70;;
61785;SDS011;47692;53.714;11.372;2022-10-16T03:55:33;4.60;;;2.77;;
61785;SDS011;47692;53.714;11.372;2022-10-16T03:57:59;4.22;;;2.47;;
61785;SDS011;47692;53.714;11.372;2022-10-16T04:00:24;4.63;;;2.87;;
61785;SDS011;47692;53.714;11.372;2022-10-16T04:02:50;4.65;;;2.70;;
61785;SDS011;47692;53.714;11.372;2022-10-16T04:05:15;4.63;;;2.50;;
61785;SDS011;47692;53.714;11.372;2022-10-16T04:07:41;4.10;;;2.70;;
61785;SDS011;47692;53.714;11.372;2022-10-16T04:10:06;4.33;;;2.70;;
61785;SDS011;47692;53.714;11.372;2022-10-16T04:12:32;6.50;;;2.40;;
61785;SDS011;47692;53.714;11.372;2022-10-16T04:14:57;4.22;;;2.42;;
61785;SDS011;47692;53.714;11.372;2022-10-16T04:17:22;6.20;;;2.40;;
61785;SDS011;47692;53.714;11.372;2022-10-16T04:19:48;6.97;;;2.53;;
61785;SDS011;47692;53.714;11.372;2022-10-16T04:22:13;6.50;;;2.40;;
61785;SDS011;47692;53.714;11.372;2022-10-16T04:24:38;3.40;;;2.30;;
61785;SDS011;47692;53.714;11.372;2022-10-16T04:27:04;3.73;;;2.20;;
61785;SDS011;47692;53.714;11.372;2022-10-16T04:29:29;5.17;;;2.23;;
61785;SDS011;47692;53.714;11.372;2022-10-16T04:31:54;5.37;;;2.30;;
61785;SDS011;47692;53.714;11.372;2022-10-16T04:34:20;5.13;;;2.30;;
61785;SDS011;47692;53.714;11.372;2022-10-16T04:36:48;5.78;;;2.65;;
61785;SDS011;47692;53.714;11.372;2022-10-16T04:39:14;4.40;;;2.47;;
61785;SDS011;47692;53.714;11.372;2022-10-16T04:41:40;5.25;;;2.38;;
61785;SDS011;47692;53.714;11.372;2022-10-16T04:44:05;4.35;;;2.38;;
61785;SDS011;47692;53.714;11.372;2022-10-16T04:46:30;5.07;;;2.60;;
61785;SDS011;47692;53.714;11.372;2022-10-16T04:48:55;4.17;;;2.50;;
61785;SDS011;47692;53.714;11.372;2022-10-16T04:51:21;5.93;;;2.40;;
61785;SDS011;47692;53.714;11.372;2022-10-16T04:53:46;5.00;;;2.67;;
61785;SDS011;47692;53.714;11.372;2022-10-16T04:56:11;5.53;;;2.40;;
61785;SDS011;47692;53.714;11.372;2022-10-16T04:58:37;5.17;;;2.30;;
61785;SDS011;47692;53.714;11.372;2022-10-16T05:01:02;3.90;;;2.30;;
61785;SDS011;47692;53.714;11.372;2022-10-16T05:03:27;3.65;;;2.33;;
61785;SDS011;47692;53.714;11.372;2022-10-16T05:05:53;4.38;;;2.33;;
61785;SDS011;47692;53.714;11.372;2022-10-16T05:08:18;4.53;;;2.70;;
61785;SDS011;47692;53.714;11.372;2022-10-16T05:10:44;3.90;;;2.23;;
61785;SDS011;47692;53.714;11.372;2022-10-16T05:13:10;4.90;;;2.20;;
61785;SDS011;47692;53.714;11.372;2022-10-16T05:15:36;5.63;;;2.50;;
61785;SDS011;47692;53.714;11.372;2022-10-16T05:18:02;3.85;;;2.33;;
61785;SDS011;47692;53.714;11.372;2022-10-16T05:20:27;3.83;;;2.17;;
61785;SDS011;47692;53.714;11.372;2022-10-16T05:22:53;4.90;;;2.58;;
61785;SDS011;47692;53.714;11.372;2022-10-16T05:25:18;5.10;;;2.10;;
61785;SDS011;47692;53.714;11.372;2022-10-16T05:27:46;5.70;;;2.20;;
61785;SDS011;47692;53.714;11.372;2022-10-16T05:30:13;5.82;;;2.08;;
61785;SDS011;47692;53.714;11.372;2022-10-16T05:32:38;5.37;;;2.20;;
61785;SDS011;47692;53.714;11.372;2022-10-16T05:35:04;5.53;;;2.30;;
61785;SDS011;47692;53.714;11.372;2022-10-16T05:37:29;4.43;;;2.23;;
61785;SDS011;47692;53.714;11.372;2022-10-16T05:39:55;5.13;;;2.20;;
61785;SDS011;47692;53.714;11.372;2022-10-16T05:42:20;4.87;;;2.27;;
61785;SDS011;47692;53.714;11.372;2022-10-16T05:44:46;4.78;;;2.30;;
61785;SDS011;47692;53.714;11.372;2022-10-16T05:47:12;6.30;;;2.30;;
61785;SDS011;47692;53.714;11.372;2022-10-16T05:49:39;4.75;;;2.05;;
61785;SDS011;47692;53.714;11.372;2022-10-16T05:52:04;4.90;;;2.10;;
61785;SDS011;47692;53.714;11.372;2022-10-16T05:54:29;5.73;;;2.60;;
61785;SDS011;47692;53.714;11.372;2022-10-16T05:56:54;5.20;;;2.30;;
61785;SDS011;47692;53.714;11.372;2022-10-16T05:59:20;6.05;;;2.30;;
61785;SDS011;47692;53.714;11.372;2022-10-16T06:01:45;6.17;;;2.17;;
61785;SDS011;47692;53.714;11.372;2022-10-16T06:04:11;4.67;;;1.90;;
61785;SDS011;47692;53.714;11.372;2022-10-16T06:06:36;4.63;;;2.00;;
61785;SDS011;47692;53.714;11.372;2022-10-16T06:09:02;6.97;;;2.17;;
61785;SDS011;47692;53.714;11.372;2022-10-16T06:11:29;5.22;;;1.83;;
61785;SDS011;47692;53.714;11.372;2022-10-16T06:13:57;6.47;;;2.08;;
61785;SDS011;47692;53.714;11.372;2022-10-16T06:16:26;4.80;;;2.28;;
61785;SDS011;47692;53.714;11.372;2022-10-16T06:18:52;3.90;;;2.10;;
61785;SDS011;47692;53.714;11.372;2022-10-16T06:21:20;4.38;;;1.92;;
61785;SDS011;47692;53.714;11.372;2022-10-16T06:23:49;5.47;;;2.28;;
61785;SDS011;47692;53.714;11.372;2022-10-16T06:26:18;5.32;;;2.45;;
61785;SDS011;47692;53.714;11.372;2022-10-16T06:28:45;5.57;;;2.35;;
61785;SDS011;47692;53.714;11.372;2022-10-16T06:31:11;5.95;;;2.10;;
61785;SDS011;47692;53.714;11.372;2022-10-16T06:33:38;5.60;;;2.33;;
61785;SDS011;47692;53.714;11.372;2022-10-16T06:36:14;6.20;;;2.60;;
61785;SDS011;47692;53.714;11.372;2022-10-16T06:38:41;3.95;;;2.15;;
61785;SDS011;47692;53.714;11.372;2022-10-16T06:41:07;5.28;;;2.13;;
61785;SDS011;47692;53.714;11.372;2022-10-16T06:43:36;5.18;;;1.77;;
61785;SDS011;47692;53.714;11.372;2022-10-16T06:46:01;6.47;;;2.10;;
61785;SDS011;47692;53.714;11.372;2022-10-16T06:48:28;4.22;;;2.20;;
61785;SDS011;47692;53.714;11.372;2022-10-16T06:51:01;7.82;;;2.50;;
61785;SDS011;47692;53.714;11.372;2022-10-16T06:53:32;5.60;;;2.23;;
61785;SDS011;47692;53.714;11.372;2022-10-16T06:56:20;4.50;;;2.05;;
61785;SDS011;47692;53.714;11.372;2022-10-16T06:58:46;4.13;;;2.28;;
61785;SDS011;47692;53.714;11.372;2022-10-16T07:01:15;5.78;;;2.20;;
61785;SDS011;47692;53.714;11.372;2022-10-16T07:03:42;4.47;;;2.30;;
61785;SDS011;47692;53.714;11.372;2022-10-16T07:06:10;5.28;;;2.25;;
61785;SDS011;47692;53.714;11.372;2022-10-16T07:08:37;4.18;;;2.30;;
61785;SDS011;47692;53.714;11.372;2022-10-16T07:11:05;5.55;;;2.35;;
61785;SDS011;47692;53.714;11.372;2022-10-16T07:13:35;4.28;;;2.42;;
61785;SDS011;47692;53.714;11.372;2022-10-16T07:16:11;7.45;;;2.42;;
61785;SDS011;47692;53.714;11.372;2022-10-16T07:18:41;4.00;;;2.30;;
61785;SDS011;47692;53.714;11.372;2022-10-16T07:21:19;7.10;;;2.65;;
61785;SDS011;47692;53.714;11.372;2022-10-16T07:23:45;4.90;;;2.20;;
61785;SDS011;47692;53.714;11.372;2022-10-16T07:26:18;6.38;;;2.42;;
61785;SDS011;47692;53.714;11.372;2022-10-16T07:28:44;5.37;;;2.30;;
61785;SDS011;47692;53.714;11.372;2022-10-16T07:31:10;4.23;;;2.20;;
61785;SDS011;47692;53.714;11.372;2022-10-16T07:33:38;4.75;;;2.47;;
61785;SDS011;47692;53.714;11.372;2022-10-16T07:36:06;5.80;;;2.70;;
61785;SDS011;47692;53.714;11.372;2022-10-16T07:38:32;4.70;;;2.53;;
61785;SDS011;47692;53.714;11.372;2022-10-16T07:40:58;5.07;;;2.40;;
61785;SDS011;47692;53.714;11.372;2022-10-16T07:43:25;5.70;;;2.50;;
61785;SDS011;47692;53.714;11.372;2022-10-16T07:45:51;4.68;;;2.42;;
61785;SDS011;47692;53.714;11.372;2022-10-16T07:48:17;7.15;;;2.72;;
61785;SDS011;47692;53.714;11.372;2022-10-16T07:50:43;8.25;;;2.53;;
61785;SDS011;47692;53.714;11.372;2022-10-16T07:53:08;7.33;;;2.57;;
61785;SDS011;47692;53.714;11.372;2022-10-16T07:55:34;5.18;;;2.40;;
61785;SDS011;47692;53.714;11.372;2022-10-16T07:57:59;5.47;;;2.90;;
61785;SDS011;47692;53.714;11.372;2022-10-16T08:00:25;6.13;;;2.80;;
61785;SDS011;47692;53.714;11.372;2022-10-16T08:02:50;5.37;;;3.00;;
61785;SDS011;47692;53.714;11.372;2022-10-16T08:05:15;5.55;;;2.60;;
61785;SDS011;47692;53.714;11.372;2022-10-16T08:07:41;5.27;;;2.57;;
61785;SDS011;47692;53.714;11.372;2022-10-16T08:10:06;5.80;;;2.50;;
61785;SDS011;47692;53.714;11.372;2022-10-16T08:12:45;5.07;;;2.55;;
61785;SDS011;47692;53.714;11.372;2022-10-16T08:15:10;6.43;;;2.40;;
61785;SDS011;47692;53.714;11.372;2022-10-16T08:17:36;5.22;;;2.40;;
61785;SDS011;47692;53.714;11.372;2022-10-16T08:20:02;5.33;;;2.60;;
61785;SDS011;47692;53.714;11.372;2022-10-16T08:22:27;4.28;;;2.28;;
61785;SDS011;47692;53.714;11.372;2022-10-16T08:24:53;6.77;;;2.47;;
61785;SDS011;47692;53.714;11.372;2022-10-16T08:27:18;6.27;;;2.20;;
61785;SDS011;47692;53.714;11.372;2022-10-16T08:29:43;5.30;;;2.40;;
61785;SDS011;47692;53.714;11.372;2022-10-16T08:32:09;5.15;;;2.60;;
61785;SDS011;47692;53.714;11.372;2022-10-16T08:34:34;6.77;;;2.20;;
61785;SDS011;47692;53.714;11.372;2022-10-16T08:36:59;5.63;;;2.30;;
61785;SDS011;47692;53.714;11.372;2022-10-16T08:39:25;6.53;;;2.33;;
61785;SDS011;47692;53.714;11.372;2022-10-16T08:42:08;5.10;;;2.13;;
61785;SDS011;47692;53.714;11.372;2022-10-16T08:47:39;4.95;;;2.13;;
61785;SDS011;47692;53.714;11.372;2022-10-16T08:50:13;6.65;;;2.38;;
61785;SDS011;47692;53.714;11.372;2022-10-16T08:52:46;4.03;;;2.10;;
61785;SDS011;47692;53.714;11.372;2022-10-16T10:56:24;1.98;;;1.00;;
61785;SDS011;47692;53.714;11.372;2022-10-16T19:06:45;5.13;;;2.00;;
61785;SDS011;47692;53.714;11.372;2022-10-16T20:31:56;5.87;;;2.00;;
61785;SDS011;47692;53.714;11.372;2022-10-16T21:03:36;3.97;;;1.77;;
61785;SDS011;47692;53.714;11.372;2022-10-16T21:06:03;5.13;;;1.90;;
61785;SDS011;47692;53.714;11.372;2022-10-16T21:08:30;3.97;;;1.50;;
